Time;durP1;ratioP1;P1;durP2;ratioP2;P2;SDS_P1;SDS_P2;PMS_P1;PMS_P2;Temp;Humidity;BMP_temperature;BMP_pressure;BME280_temperature;BME280_humidity;BME280_pressure;Samples;Min_cycle;Max_cycle;Signal;HPM_P1;HPM_P2
2021/08/26 00:07:02;;;;;;;10.23;4.30;;;;;;;;;;5098249;28;20419;-71
2021/08/26 00:09:30;;;;;;;12.20;3.87;;;;;;;;;;5108712;28;20455;-71
2021/08/26 00:11:59;;;;;;;26.57;3.60;;;;;;;;;;5118830;28;20454;-71
2021/08/26 00:14:27;;;;;;;14.10;3.10;;;;;;;;;;5098853;28;20473;-71
2021/08/26 00:16:55;;;;;;;13.53;3.40;;;;;;;;;;5098457;28;20545;-70
2021/08/26 00:19:23;;;;;;;16.80;3.30;;;;;;;;;;5109116;28;20452;-71
2021/08/26 00:21:52;;;;;;;11.17;2.57;;;;;;;;;;5098599;28;20447;-70
2021/08/26 00:24:22;;;;;;;18.90;3.87;;;;;;;;;;5101844;28;20576;-71
2021/08/26 00:26:50;;;;;;;11.30;2.77;;;;;;;;;;5106525;28;20451;-71
2021/08/26 00:29:18;;;;;;;9.67;3.40;;;;;;;;;;5113393;28;20892;-71
2021/08/26 00:31:46;;;;;;;15.03;2.70;;;;;;;;;;5118137;28;20538;-71
2021/08/26 00:34:14;;;;;;;15.93;3.37;;;;;;;;;;5118318;28;20447;-71
2021/08/26 00:36:42;;;;;;;19.27;3.30;;;;;;;;;;5118291;28;20459;-71
2021/08/26 00:39:09;;;;;;;11.73;2.93;;;;;;;;;;5111494;28;20448;-70
2021/08/26 00:41:39;;;;;;;16.03;4.23;;;;;;;;;;5097849;28;20863;-71
2021/08/26 00:44:07;;;;;;;10.10;3.27;;;;;;;;;;5098489;28;20514;-71
2021/08/26 00:46:35;;;;;;;26.20;4.40;;;;;;;;;;5097822;28;20452;-71
2021/08/26 00:49:02;;;;;;;18.00;3.70;;;;;;;;;;5103215;28;20545;-71
2021/08/26 00:51:32;;;;;;;24.27;4.50;;;;;;;;;;5117907;28;20458;-71
2021/08/26 00:54:00;;;;;;;17.63;3.87;;;;;;;;;;5118138;28;20459;-71
2021/08/26 00:56:28;;;;;;;11.00;3.90;;;;;;;;;;5118108;28;20492;-71
2021/08/26 00:58:59;;;;;;;13.57;3.10;;;;;;;;;;5113093;28;20732;-71
2021/08/26 01:01:28;;;;;;;14.00;3.77;;;;;;;;;;5097357;28;20455;-72
2021/08/26 01:03:59;;;;;;;14.27;3.13;;;;;;;;;;5103562;28;20762;-71
2021/08/26 01:06:29;;;;;;;18.20;5.07;;;;;;;;;;5117443;28;20516;-72
2021/08/26 01:09:00;;;;;;;10.63;2.60;;;;;;;;;;5104287;28;20513;-71
2021/08/26 01:11:28;;;;;;;22.00;4.37;;;;;;;;;;5097642;28;20505;-71
2021/08/26 01:13:56;;;;;;;7.97;3.20;;;;;;;;;;5097399;28;20536;-72
2021/08/26 01:16:25;;;;;;;18.47;4.77;;;;;;;;;;5097355;28;20447;-72
2021/08/26 01:18:53;;;;;;;11.93;3.67;;;;;;;;;;5097919;28;20443;-71
2021/08/26 01:21:22;;;;;;;17.13;3.07;;;;;;;;;;5097495;28;20451;-71
2021/08/26 01:23:53;;;;;;;19.23;3.83;;;;;;;;;;5097228;28;20816;-71
2021/08/26 01:26:25;;;;;;;10.60;4.37;;;;;;;;;;5097174;28;20724;-71
2021/08/26 01:28:55;;;;;;;16.30;4.57;;;;;;;;;;5099645;28;20862;-71
2021/08/26 01:31:23;;;;;;;18.07;3.73;;;;;;;;;;5108616;28;20442;-71
2021/08/26 01:33:51;;;;;;;12.77;3.73;;;;;;;;;;5117924;28;20733;-71
2021/08/26 01:36:20;;;;;;;15.63;3.30;;;;;;;;;;5117121;28;20447;-71
2021/08/26 01:38:50;;;;;;;11.20;4.33;;;;;;;;;;5115441;28;20947;-71
2021/08/26 01:41:18;;;;;;;21.90;3.97;;;;;;;;;;5096543;28;20517;-71
2021/08/26 01:43:47;;;;;;;17.97;3.53;;;;;;;;;;5098138;28;20545;-71
2021/08/26 01:46:20;;;;;;;18.13;4.40;;;;;;;;;;5097207;28;20458;-71
2021/08/26 01:48:49;;;;;;;17.10;4.50;;;;;;;;;;5111155;28;20454;-71
2021/08/26 01:51:17;;;;;;;14.20;4.87;;;;;;;;;;5116496;28;20446;-71
2021/08/26 01:53:44;;;;;;;14.13;3.50;;;;;;;;;;5116957;28;20466;-71
2021/08/26 01:56:12;;;;;;;13.20;3.80;;;;;;;;;;5096173;28;20861;-71
2021/08/26 01:58:40;;;;;;;9.83;3.90;;;;;;;;;;5102114;28;20897;-71
2021/08/26 02:01:10;;;;;;;18.63;3.67;;;;;;;;;;5101590;28;20731;-71
2021/08/26 02:03:40;;;;;;;18.63;4.93;;;;;;;;;;5096253;28;20444;-71
2021/08/26 02:06:08;;;;;;;16.67;5.03;;;;;;;;;;5095939;28;20458;-71
2021/08/26 02:08:36;;;;;;;16.13;3.87;;;;;;;;;;5107639;28;20451;-71
2021/08/26 02:11:04;;;;;;;19.53;4.97;;;;;;;;;;5116469;28;20450;-71
2021/08/26 02:13:31;;;;;;;15.73;3.90;;;;;;;;;;5104809;28;20460;-71
2021/08/26 02:15:59;;;;;;;19.10;5.17;;;;;;;;;;5096450;28;20532;-71
2021/08/26 02:18:29;;;;;;;11.77;3.43;;;;;;;;;;5107377;28;20450;-71
2021/08/26 02:20:56;;;;;;;9.97;3.73;;;;;;;;;;5115559;28;20511;-71
2021/08/26 02:23:24;;;;;;;16.90;3.90;;;;;;;;;;5096517;28;20459;-71
2021/08/26 02:25:52;;;;;;;19.37;5.50;;;;;;;;;;5097745;28;20574;-71
2021/08/26 02:28:20;;;;;;;14.00;4.47;;;;;;;;;;5110299;28;20478;-71
2021/08/26 02:30:49;;;;;;;10.33;4.20;;;;;;;;;;5112659;28;20482;-71
2021/08/26 02:33:17;;;;;;;16.03;4.70;;;;;;;;;;5116981;28;20768;-71
2021/08/26 02:35:47;;;;;;;16.87;5.33;;;;;;;;;;5117119;28;20451;-71
2021/08/26 02:38:16;;;;;;;13.33;4.17;;;;;;;;;;5108262;28;20436;-71
2021/08/26 02:40:44;;;;;;;19.90;4.50;;;;;;;;;;5096826;28;20466;-71
2021/08/26 02:43:11;;;;;;;11.93;4.70;;;;;;;;;;5096606;28;20546;-71
2021/08/26 02:45:39;;;;;;;17.23;4.87;;;;;;;;;;5096990;28;20545;-71
2021/08/26 02:48:08;;;;;;;12.80;4.70;;;;;;;;;;5103831;28;20726;-71
2021/08/26 02:50:36;;;;;;;17.17;4.33;;;;;;;;;;5117509;28;20497;-72
2021/08/26 02:53:05;;;;;;;13.60;4.17;;;;;;;;;;5114777;28;20465;-72
2021/08/26 02:55:34;;;;;;;19.07;5.87;;;;;;;;;;5117086;28;20450;-71
2021/08/26 02:58:06;;;;;;;14.20;4.30;;;;;;;;;;5110570;28;20505;-71
2021/08/26 03:00:34;;;;;;;21.13;6.70;;;;;;;;;;5096503;28;20455;-71
2021/08/26 03:03:02;;;;;;;18.07;6.87;;;;;;;;;;5096567;28;20451;-71
2021/08/26 03:05:29;;;;;;;18.80;4.63;;;;;;;;;;5096213;28;20509;-71
2021/08/26 03:07:58;;;;;;;23.77;4.57;;;;;;;;;;5101104;28;20446;-71
2021/08/26 03:10:27;;;;;;;22.23;5.80;;;;;;;;;;5116346;28;20466;-71
2021/08/26 03:12:56;;;;;;;30.40;4.53;;;;;;;;;;5116066;28;20516;-71
2021/08/26 03:15:24;;;;;;;14.00;4.23;;;;;;;;;;5116149;28;20455;-71
2021/08/26 03:17:52;;;;;;;20.23;5.40;;;;;;;;;;5112078;28;20477;-71
2021/08/26 03:20:20;;;;;;;17.00;5.53;;;;;;;;;;5095969;28;20462;-71
2021/08/26 03:22:48;;;;;;;13.63;5.13;;;;;;;;;;5098378;28;20875;-71
2021/08/26 03:25:16;;;;;;;19.50;5.60;;;;;;;;;;5099622;28;20498;-71
2021/08/26 03:27:46;;;;;;;21.97;4.60;;;;;;;;;;5102605;28;20443;-71
2021/08/26 03:30:14;;;;;;;15.73;5.10;;;;;;;;;;5119970;28;20454;-71
2021/08/26 03:32:42;;;;;;;16.73;5.77;;;;;;;;;;5099317;28;20451;-71
2021/08/26 03:35:11;;;;;;;19.83;5.03;;;;;;;;;;5099585;28;20478;-71
2021/08/26 03:37:39;;;;;;;19.33;5.13;;;;;;;;;;5099467;28;20452;-71
2021/08/26 03:40:07;;;;;;;18.00;5.30;;;;;;;;;;5099187;28;20733;-71
2021/08/26 03:42:36;;;;;;;14.90;5.10;;;;;;;;;;5099966;28;20451;-71
2021/08/26 03:45:07;;;;;;;22.90;6.10;;;;;;;;;;5099632;28;20487;-71
2021/08/26 03:47:35;;;;;;;20.73;5.40;;;;;;;;;;5116640;28;20451;-71
2021/08/26 03:50:03;;;;;;;15.13;4.70;;;;;;;;;;5119868;28;20458;-71
2021/08/26 03:52:31;;;;;;;15.80;5.07;;;;;;;;;;5119731;28;20851;-71
2021/08/26 03:54:59;;;;;;;12.50;4.53;;;;;;;;;;5109362;28;20876;-71
2021/08/26 03:57:27;;;;;;;14.43;6.17;;;;;;;;;;5098711;28;20463;-72
2021/08/26 03:59:55;;;;;;;17.03;4.90;;;;;;;;;;5098644;28;20543;-71
2021/08/26 04:02:24;;;;;;;12.83;5.60;;;;;;;;;;5098890;28;20462;-71
2021/08/26 04:04:53;;;;;;;11.10;5.07;;;;;;;;;;5098199;28;20483;-71
2021/08/26 04:07:21;;;;;;;15.43;4.77;;;;;;;;;;5098944;28;20462;-71
2021/08/26 04:09:49;;;;;;;17.67;6.10;;;;;;;;;;5098595;28;20489;-71
2021/08/26 04:12:17;;;;;;;16.67;5.40;;;;;;;;;;5098835;28;20883;-71
2021/08/26 04:14:45;;;;;;;15.83;6.50;;;;;;;;;;5099072;28;20710;-71
2021/08/26 04:17:13;;;;;;;18.83;5.00;;;;;;;;;;5111995;28;20863;-71
2021/08/26 04:19:42;;;;;;;15.43;4.50;;;;;;;;;;5118947;28;20450;-71
2021/08/26 04:22:10;;;;;;;17.23;4.53;;;;;;;;;;5118260;28;20447;-71
2021/08/26 04:24:38;;;;;;;18.90;5.50;;;;;;;;;;5117972;28;20486;-71
2021/08/26 04:27:06;;;;;;;21.10;6.23;;;;;;;;;;5102233;28;20529;-71
2021/08/26 04:29:33;;;;;;;20.80;6.00;;;;;;;;;;5098036;28;20521;-71
2021/08/26 04:32:02;;;;;;;14.27;5.37;;;;;;;;;;5109247;28;20443;-71
2021/08/26 04:34:29;;;;;;;15.33;5.03;;;;;;;;;;5097604;28;20920;-72
2021/08/26 04:36:59;;;;;;;10.50;4.47;;;;;;;;;;5097444;28;20444;-71
2021/08/26 04:39:27;;;;;;;18.10;5.57;;;;;;;;;;5097924;28;20463;-71
2021/08/26 04:41:55;;;;;;;19.17;5.63;;;;;;;;;;5097858;28;20462;-71
2021/08/26 04:44:23;;;;;;;20.30;5.80;;;;;;;;;;5097972;28;20456;-72
2021/08/26 04:46:54;;;;;;;23.50;6.00;;;;;;;;;;5110410;28;20522;-71
2021/08/26 04:49:22;;;;;;;16.33;5.40;;;;;;;;;;5112792;28;20456;-70
2021/08/26 04:51:50;;;;;;;20.80;7.23;;;;;;;;;;5107734;28;20447;-70
2021/08/26 04:54:19;;;;;;;12.63;4.87;;;;;;;;;;5098445;28;20448;-71
2021/08/26 04:56:48;;;;;;;18.40;5.23;;;;;;;;;;5101072;28;20519;-72
2021/08/26 04:59:16;;;;;;;14.97;5.70;;;;;;;;;;5096908;28;20531;-72
2021/08/26 05:01:45;;;;;;;14.47;4.87;;;;;;;;;;5096994;28;20551;-71
2021/08/26 05:04:20;;;;;;;14.70;4.60;;;;;;;;;;5097103;28;20486;-71
2021/08/26 05:06:49;;;;;;;18.97;4.90;;;;;;;;;;5096823;28;21017;-71
2021/08/26 05:09:16;;;;;;;9.53;3.70;;;;;;;;;;5097312;28;21023;-71
2021/08/26 05:11:46;;;;;;;18.50;5.23;;;;;;;;;;5097440;28;21078;-71
2021/08/26 05:14:14;;;;;;;18.93;5.80;;;;;;;;;;5099857;28;20879;-69
2021/08/26 05:16:45;;;;;;;13.83;5.03;;;;;;;;;;5106303;28;20531;-72
2021/08/26 05:19:13;;;;;;;15.63;5.00;;;;;;;;;;5116341;28;21041;-70
2021/08/26 05:21:42;;;;;;;18.47;5.17;;;;;;;;;;5116697;28;20447;-71
2021/08/26 05:24:17;;;;;;;17.67;5.23;;;;;;;;;;5116908;28;20458;-71
2021/08/26 05:26:50;;;;;;;21.80;5.70;;;;;;;;;;5116665;28;20489;-71
2021/08/26 05:29:17;;;;;;;14.60;5.00;;;;;;;;;;5097833;28;20486;-71
2021/08/26 05:31:46;;;;;;;25.17;5.90;;;;;;;;;;5096347;28;20521;-71
2021/08/26 05:34:14;;;;;;;13.60;8.17;;;;;;;;;;5097125;28;20852;-71
2021/08/26 05:36:42;;;;;;;18.10;5.20;;;;;;;;;;5096007;28;20793;-70
2021/08/26 05:39:10;;;;;;;17.80;5.77;;;;;;;;;;5116370;28;20920;-70
2021/08/26 05:41:43;;;;;;;18.63;5.20;;;;;;;;;;5116014;28;20455;-72
2021/08/26 05:44:14;;;;;;;19.93;4.97;;;;;;;;;;5099328;28;20460;-72
2021/08/26 05:46:42;;;;;;;17.67;4.90;;;;;;;;;;5096019;28;20483;-72
2021/08/26 05:49:10;;;;;;;17.30;5.73;;;;;;;;;;5111790;28;20749;-72
2021/08/26 05:51:45;;;;;;;12.83;5.23;;;;;;;;;;5115223;28;20547;-72
2021/08/26 05:54:13;;;;;;;12.23;4.10;;;;;;;;;;5115917;28;20453;-72
2021/08/26 05:56:44;;;;;;;16.50;4.77;;;;;;;;;;5116294;28;20454;-72
2021/08/26 05:59:12;;;;;;;12.17;4.20;;;;;;;;;;5115398;28;20494;-71
2021/08/26 06:01:48;;;;;;;15.17;4.10;;;;;;;;;;5096781;28;20452;-71
2021/08/26 06:04:16;;;;;;;12.97;6.40;;;;;;;;;;5096572;28;20817;-72
2021/08/26 06:06:45;;;;;;;12.60;4.37;;;;;;;;;;5096845;28;20903;-71
2021/08/26 06:09:13;;;;;;;10.57;3.53;;;;;;;;;;5095229;28;20491;-73
2021/08/26 06:11:42;;;;;;;18.37;4.07;;;;;;;;;;5095811;28;20452;-72
2021/08/26 06:14:10;;;;;;;14.60;4.43;;;;;;;;;;5095189;28;20463;-72
2021/08/26 06:16:38;;;;;;;9.97;4.57;;;;;;;;;;5093757;28;20768;-72
2021/08/26 06:19:07;;;;;;;12.50;4.00;;;;;;;;;;5095461;28;20459;-72
2021/08/26 06:21:35;;;;;;;20.43;4.27;;;;;;;;;;5100331;28;20910;-72
2021/08/26 06:24:06;;;;;;;13.27;3.80;;;;;;;;;;5095399;28;20552;-72
2021/08/26 06:26:37;;;;;;;24.43;5.77;;;;;;;;;;5102006;28;20483;-71
2021/08/26 06:29:06;;;;;;;13.10;3.13;;;;;;;;;;5094410;28;20516;-71
2021/08/26 06:31:39;;;;;;;16.20;5.70;;;;;;;;;;5095839;28;20736;-71
2021/08/26 06:34:08;;;;;;;18.03;4.40;;;;;;;;;;5106645;28;20465;-71
2021/08/26 06:36:47;;;;;;;14.07;3.33;;;;;;;;;;5115925;28;20439;-71
2021/08/26 06:39:18;;;;;;;12.23;3.23;;;;;;;;;;5103106;28;20459;-72
2021/08/26 06:41:49;;;;;;;8.63;3.20;;;;;;;;;;5095026;28;20451;-71
2021/08/26 06:44:21;;;;;;;8.17;2.90;;;;;;;;;;5095596;28;21102;-71
2021/08/26 06:46:51;;;;;;;17.20;4.80;;;;;;;;;;5099249;28;20502;-71
2021/08/26 06:49:24;;;;;;;13.10;4.63;;;;;;;;;;5115308;28;20454;-71
2021/08/26 06:51:53;;;;;;;11.00;3.20;;;;;;;;;;5113662;28;20901;-71
2021/08/26 06:54:21;;;;;;;13.70;3.50;;;;;;;;;;5108804;28;20455;-72
2021/08/26 06:56:49;;;;;;;16.13;3.57;;;;;;;;;;5100428;28;20479;-71
2021/08/26 06:59:20;;;;;;;10.27;3.50;;;;;;;;;;5117420;27;20477;-71
2021/08/26 07:01:49;;;;;;;16.60;4.27;;;;;;;;;;5115875;28;20462;-73
2021/08/26 07:04:21;;;;;;;10.20;3.83;;;;;;;;;;5112261;27;20495;-70
2021/08/26 07:07:00;;;;;;;15.30;4.03;;;;;;;;;;5105152;28;20925;-73
2021/08/26 07:09:43;;;;;;;16.27;4.20;;;;;;;;;;5098845;28;20461;-74
2021/08/26 07:12:31;;;;;;;12.23;3.90;;;;;;;;;;5098234;28;20481;-71
2021/08/26 07:15:01;;;;;;;18.77;4.03;;;;;;;;;;5098994;28;20458;-71
2021/08/26 07:17:29;;;;;;;11.50;3.20;;;;;;;;;;5098028;28;20446;-71
2021/08/26 07:19:57;;;;;;;9.87;2.90;;;;;;;;;;5098774;28;20467;-71
2021/08/26 07:22:30;;;;;;;9.27;3.67;;;;;;;;;;5110685;28;20465;-72
2021/08/26 07:24:58;;;;;;;22.30;3.93;;;;;;;;;;5118868;28;20465;-71
2021/08/26 07:27:32;;;;;;;13.53;3.90;;;;;;;;;;5118564;28;20543;-70
2021/08/26 07:30:01;;;;;;;10.13;4.17;;;;;;;;;;5118927;28;20541;-71
2021/08/26 07:32:36;;;;;;;13.00;3.17;;;;;;;;;;5100726;28;20468;-70
2021/08/26 07:35:07;;;;;;;12.77;3.73;;;;;;;;;;5099047;28;20774;-70
2021/08/26 07:37:53;;;;;;;12.33;3.80;;;;;;;;;;5098171;28;20509;-72
2021/08/26 07:40:23;;;;;;;9.47;4.03;;;;;;;;;;5108434;28;20545;-72
2021/08/26 07:43:14;;;;;;;14.10;4.23;;;;;;;;;;5118944;28;20489;-71
2021/08/26 07:45:46;;;;;;;14.00;3.33;;;;;;;;;;5103320;28;20836;-72
2021/08/26 07:48:21;;;;;;;20.10;4.73;;;;;;;;;;5102579;28;20815;-72
2021/08/26 07:50:52;;;;;;;17.30;4.77;;;;;;;;;;5100909;28;20973;-71
2021/08/26 07:53:30;;;;;;;9.30;3.80;;;;;;;;;;5100321;28;20915;-71
2021/08/26 07:55:58;;;;;;;13.33;2.80;;;;;;;;;;5104287;28;20908;-71
2021/08/26 07:58:29;;;;;;;7.03;3.40;;;;;;;;;;5101909;28;20470;-71
2021/08/26 08:01:03;;;;;;;14.10;4.07;;;;;;;;;;5106103;27;20448;-71
2021/08/26 08:03:44;;;;;;;10.83;4.77;;;;;;;;;;5101916;27;20450;-71
2021/08/26 08:06:18;;;;;;;6.57;3.03;;;;;;;;;;5100728;28;20482;-71
2021/08/26 08:08:47;;;;;;;6.17;2.87;;;;;;;;;;5111164;27;20447;-71
2021/08/26 08:11:18;;;;;;;14.20;3.30;;;;;;;;;;5118266;28;20458;-71
2021/08/26 08:13:46;;;;;;;12.23;3.53;;;;;;;;;;5118593;28;20463;-72
2021/08/26 08:16:16;;;;;;;4.83;2.17;;;;;;;;;;5118503;28;20492;-73
2021/08/26 08:18:45;;;;;;;9.93;2.90;;;;;;;;;;5117423;28;20466;-71
2021/08/26 08:21:16;;;;;;;9.50;3.00;;;;;;;;;;5117762;28;20894;-70
2021/08/26 08:23:44;;;;;;;9.77;2.90;;;;;;;;;;5118005;28;20459;-71
2021/08/26 08:26:16;;;;;;;16.80;3.23;;;;;;;;;;5117923;28;20871;-70
2021/08/26 08:28:44;;;;;;;8.57;2.07;;;;;;;;;;5108259;28;20463;-72
2021/08/26 08:31:15;;;;;;;3.80;2.23;;;;;;;;;;5111642;28;20462;-71
2021/08/26 08:33:44;;;;;;;8.30;2.07;;;;;;;;;;5117667;28;20503;-70
2021/08/26 08:36:12;;;;;;;7.90;2.50;;;;;;;;;;5116957;28;20446;-72
2021/08/26 08:38:40;;;;;;;5.03;2.03;;;;;;;;;;5111502;28;20516;-72
2021/08/26 08:41:10;;;;;;;4.10;2.37;;;;;;;;;;5113426;28;20443;-71
2021/08/26 08:43:42;;;;;;;10.60;2.10;;;;;;;;;;5096666;28;20448;-72
2021/08/26 08:46:18;;;;;;;5.50;2.03;;;;;;;;;;5103563;28;20501;-72
2021/08/26 08:48:46;;;;;;;3.93;1.83;;;;;;;;;;5105504;28;20493;-71
2021/08/26 08:51:14;;;;;;;6.80;1.67;;;;;;;;;;5116500;28;20459;-71
2021/08/26 08:53:44;;;;;;;7.23;1.90;;;;;;;;;;5108263;28;20458;-70
2021/08/26 08:56:14;;;;;;;7.67;2.63;;;;;;;;;;5108906;28;20758;-73
2021/08/26 08:58:49;;;;;;;5.77;2.83;;;;;;;;;;5104833;28;20462;-71
2021/08/26 09:01:17;;;;;;;4.30;1.67;;;;;;;;;;5107900;28;20806;-70
2021/08/26 09:03:45;;;;;;;4.50;1.20;;;;;;;;;;5102608;28;20852;-71
2021/08/26 09:06:18;;;;;;;9.57;2.23;;;;;;;;;;5108550;28;20475;-71
2021/08/26 09:09:01;;;;;;;4.50;2.00;;;;;;;;;;5095276;28;20466;-70
2021/08/26 09:11:29;;;;;;;9.70;2.10;;;;;;;;;;5133492;27;20529;-70
2021/08/26 09:14:08;;;;;;;2.67;1.30;;;;;;;;;;5135390;27;20534;-69
2021/08/26 09:16:38;;;;;;;5.17;1.80;;;;;;;;;;5099882;28;20530;-71
2021/08/26 09:19:34;;;;;;;5.97;1.97;;;;;;;;;;5115885;27;20521;-72
2021/08/26 09:28:02;;;;;;;6.50;1.63;;;;;;;;;;5094290;28;20901;-71
2021/08/26 09:30:47;;;;;;;7.43;2.63;;;;;;;;;;5096012;28;20466;-71
2021/08/26 09:33:19;;;;;;;6.87;2.10;;;;;;;;;;5096123;28;20455;-70
2021/08/26 09:35:52;;;;;;;4.10;1.50;;;;;;;;;;5105706;28;20494;-72
2021/08/26 09:38:30;;;;;;;5.73;2.00;;;;;;;;;;5098314;28;20546;-71
2021/08/26 09:41:04;;;;;;;4.83;1.87;;;;;;;;;;5096636;28;20527;-72
2021/08/26 09:43:34;;;;;;;6.03;1.47;;;;;;;;;;5094957;28;20448;-72
2021/08/26 09:46:15;;;;;;;5.30;1.10;;;;;;;;;;5108268;28;20438;-70
2021/08/26 09:49:02;;;;;;;5.17;3.23;;;;;;;;;;5104871;28;20522;-71
2021/08/26 09:54:36;;;;;;;4.03;2.10;;;;;;;;;;5099554;28;20450;-72
2021/08/26 09:57:33;;;;;;;3.10;1.47;;;;;;;;;;5097154;28;20453;-71
2021/08/26 10:00:02;;;;;;;10.10;3.90;;;;;;;;;;5096905;28;20455;-72
2021/08/26 10:02:33;;;;;;;3.50;1.77;;;;;;;;;;5107558;28;20444;-74
2021/08/26 10:05:01;;;;;;;3.10;0.93;;;;;;;;;;5105376;28;20487;-73
2021/08/26 10:07:30;;;;;;;6.93;3.47;;;;;;;;;;5117628;28;21023;-72
2021/08/26 10:10:00;;;;;;;9.10;2.20;;;;;;;;;;5099198;28;20463;-73
2021/08/26 10:12:28;;;;;;;5.67;2.43;;;;;;;;;;5099395;28;20462;-73
2021/08/26 10:15:04;;;;;;;17.57;3.00;;;;;;;;;;5113047;28;20459;-73
2021/08/26 10:17:33;;;;;;;4.57;3.20;;;;;;;;;;5111990;28;20459;-73
2021/08/26 10:20:03;;;;;;;3.37;1.60;;;;;;;;;;5106995;28;20464;-72
2021/08/26 10:22:31;;;;;;;3.50;1.27;;;;;;;;;;5077051;28;20440;-71
2021/08/26 10:25:07;;;;;;;2.70;1.53;;;;;;;;;;5096244;28;20476;-72
2021/08/26 10:27:38;;;;;;;11.83;3.47;;;;;;;;;;5094005;28;20818;-71
2021/08/26 10:30:22;;;;;;;4.87;2.50;;;;;;;;;;5095628;28;20661;-72
2021/08/26 10:33:11;;;;;;;1.80;0.97;;;;;;;;;;5100456;28;20480;-74
2021/08/26 10:36:02;;;;;;;5.27;2.20;;;;;;;;;;5100948;28;20451;-72
2021/08/26 10:38:34;;;;;;;3.87;1.60;;;;;;;;;;5099249;28;20461;-72
2021/08/26 10:41:22;;;;;;;2.90;1.60;;;;;;;;;;5114987;28;20462;-71
2021/08/26 10:43:57;;;;;;;3.37;2.40;;;;;;;;;;5108575;28;20450;-71
2021/08/26 10:46:41;;;;;;;4.90;4.00;;;;;;;;;;5116347;28;20756;-72
2021/08/26 10:49:10;;;;;;;4.43;2.17;;;;;;;;;;5115175;28;20947;-70
2021/08/26 10:51:46;;;;;;;3.33;1.70;;;;;;;;;;5118323;28;20458;-71
2021/08/26 10:54:25;;;;;;;7.87;1.83;;;;;;;;;;5116463;28;20499;-73
2021/08/26 10:57:00;;;;;;;3.90;1.70;;;;;;;;;;5104870;28;20454;-71
2021/08/26 10:59:36;;;;;;;4.23;1.83;;;;;;;;;;5097556;28;20439;-71
2021/08/26 11:02:26;;;;;;;5.77;2.43;;;;;;;;;;5103686;27;20534;-70
2021/08/26 11:05:18;;;;;;;3.80;1.70;;;;;;;;;;5098489;28;20447;-71
2021/08/26 11:07:51;;;;;;;6.20;2.13;;;;;;;;;;5096848;28;20705;-71
2021/08/26 11:10:26;;;;;;;3.40;2.23;;;;;;;;;;5097567;28;20459;-71
2021/08/26 11:12:58;;;;;;;6.20;1.73;;;;;;;;;;5098693;28;20466;-70
2021/08/26 11:15:29;;;;;;;4.60;2.47;;;;;;;;;;5117605;28;20462;-71
2021/08/26 11:18:22;;;;;;;3.30;2.07;;;;;;;;;;5117566;28;20439;-70
2021/08/26 11:20:51;;;;;;;3.73;2.17;;;;;;;;;;5117646;28;20458;-70
2021/08/26 11:23:20;;;;;;;7.97;2.77;;;;;;;;;;5118894;28;20453;-70
2021/08/26 11:25:50;;;;;;;5.70;2.13;;;;;;;;;;5118850;28;20450;-71
2021/08/26 11:28:50;;;;;;;;;;;;;;;;;;;;;
2021/08/26 11:31:34;;;;;;;4.57;1.83;;;;;;;;;;5118671;28;20878;-69
2021/08/26 11:34:04;;;;;;;7.83;2.83;;;;;;;;;;5118512;28;20522;-70
2021/08/26 11:39:44;;;;;;;5.90;3.40;;;;;;;;;;5112521;28;20449;-70
2021/08/26 11:42:12;;;;;;;2.90;2.20;;;;;;;;;;5097712;28;20451;-71
2021/08/26 11:44:43;;;;;;;5.43;2.13;;;;;;;;;;5097110;28;20509;-71
2021/08/26 11:47:11;;;;;;;2.60;1.63;;;;;;;;;;5097034;28;20798;-72
2021/08/26 11:49:40;;;;;;;5.00;2.07;;;;;;;;;;5097006;28;20552;-71
2021/08/26 11:52:11;;;;;;;4.17;2.00;;;;;;;;;;5097389;28;20474;-70
2021/08/26 11:54:45;;;;;;;4.43;2.50;;;;;;;;;;5111384;28;20451;-71
2021/08/26 11:57:13;;;;;;;2.90;2.00;;;;;;;;;;5098906;28;20446;-71
2021/08/26 11:59:42;;;;;;;3.93;2.40;;;;;;;;;;5099024;28;20887;-70
2021/08/26 12:02:25;;;;;;;3.33;1.90;;;;;;;;;;5099889;28;21024;-70
2021/08/26 12:04:56;;;;;;;5.50;1.77;;;;;;;;;;5099514;28;20546;-70
2021/08/26 12:07:36;;;;;;;2.47;1.17;;;;;;;;;;5126961;27;20479;-70
2021/08/26 12:10:10;;;;;;;4.30;1.50;;;;;;;;;;5119074;28;20451;-70
2021/08/26 12:12:54;;;;;;;3.03;1.20;;;;;;;;;;5098288;28;20808;-71
2021/08/26 12:15:29;;;;;;;2.33;0.90;;;;;;;;;;5097669;28;20456;-72
2021/08/26 12:18:01;;;;;;;5.20;1.43;;;;;;;;;;5117628;27;20461;-71
2021/08/26 12:20:31;;;;;;;3.83;2.50;;;;;;;;;;5098672;28;20485;-70
2021/08/26 12:23:06;;;;;;;5.10;1.80;;;;;;;;;;5112572;28;20512;-73
2021/08/26 12:25:37;;;;;;;2.10;0.93;;;;;;;;;;5112856;28;20462;-72
2021/08/26 12:28:07;;;;;;;3.17;1.43;;;;;;;;;;5117458;28;20547;-72
2021/08/26 12:30:36;;;;;;;2.00;0.83;;;;;;;;;;5117237;28;20742;-70
2021/08/26 12:33:16;;;;;;;3.37;1.90;;;;;;;;;;5111815;28;20452;-71
2021/08/26 12:35:51;;;;;;;6.17;1.53;;;;;;;;;;5096945;28;20848;-71
2021/08/26 12:41:35;;;;;;;3.27;1.33;;;;;;;;;;5119024;27;20507;-70
2021/08/26 12:44:11;;;;;;;8.60;1.90;;;;;;;;;;5098087;28;20483;-71
2021/08/26 12:46:45;;;;;;;7.53;2.60;;;;;;;;;;5099276;28;20537;-69
2021/08/26 12:49:16;;;;;;;3.10;0.90;;;;;;;;;;5104780;28;20501;-71
2021/08/26 12:51:53;;;;;;;3.90;1.40;;;;;;;;;;5105010;28;20477;-70
2021/08/26 12:54:29;;;;;;;4.70;1.30;;;;;;;;;;5110687;28;20447;-70
2021/08/26 12:57:01;;;;;;;8.93;2.57;;;;;;;;;;5100292;28;20456;-71
2021/08/26 12:59:42;;;;;;;4.07;0.93;;;;;;;;;;5098101;28;20556;-71
2021/08/26 13:02:11;;;;;;;2.87;2.10;;;;;;;;;;5104855;28;20728;-71
2021/08/26 13:04:53;;;;;;;1.90;1.00;;;;;;;;;;5111003;28;20455;-70
2021/08/26 13:07:25;;;;;;;2.13;1.37;;;;;;;;;;5111268;28;20871;-71
2021/08/26 13:09:58;;;;;;;2.40;1.37;;;;;;;;;;5102249;28;20443;-70
2021/08/26 13:12:40;;;;;;;2.23;1.17;;;;;;;;;;5112967;28;20558;-71
2021/08/26 13:15:32;;;;;;;7.50;2.30;;;;;;;;;;5102509;28;20475;-72
2021/08/26 13:18:06;;;;;;;3.90;1.43;;;;;;;;;;5085371;28;20451;-71
2021/08/26 13:20:45;;;;;;;4.20;1.70;;;;;;;;;;5112323;28;20510;-73
2021/08/26 13:23:40;;;;;;;4.50;2.07;;;;;;;;;;5112711;28;20453;-73
2021/08/26 13:26:09;;;;;;;3.90;2.03;;;;;;;;;;5111604;28;20512;-72
2021/08/26 13:28:39;;;;;;;4.97;1.87;;;;;;;;;;5113764;28;20541;-71
2021/08/26 13:31:09;;;;;;;5.90;1.90;;;;;;;;;;5112740;28;20526;-71
2021/08/26 13:33:57;;;;;;;2.77;1.57;;;;;;;;;;5109181;28;20442;-72
2021/08/26 13:36:43;;;;;;;4.20;1.83;;;;;;;;;;5105038;28;20832;-72
2021/08/26 13:39:20;;;;;;;2.50;1.60;;;;;;;;;;5105571;28;21070;-72
2021/08/26 13:42:12;;;;;;;;;;;;;;;;;;;;;
2021/08/26 13:45:02;;;;;;;3.87;1.83;;;;;;;;;;5096193;28;20472;-71
2021/08/26 13:47:42;;;;;;;3.47;1.87;;;;;;;;;;5106453;28;20534;-72
2021/08/26 13:50:11;;;;;;;4.00;2.33;;;;;;;;;;5112355;28;20458;-71
2021/08/26 13:52:47;;;;;;;4.67;1.30;;;;;;;;;;5100427;28;20532;-70
2021/08/26 13:55:20;;;;;;;3.37;2.00;;;;;;;;;;5096794;28;20520;-71
2021/08/26 13:58:11;;;;;;;4.57;1.40;;;;;;;;;;5098154;28;20824;-73
2021/08/26 14:00:44;;;;;;;2.90;2.00;;;;;;;;;;5097665;28;20487;-70
2021/08/26 14:03:20;;;;;;;2.40;1.23;;;;;;;;;;5093916;28;20479;-70
2021/08/26 14:06:00;;;;;;;3.60;1.90;;;;;;;;;;5099096;28;20483;-71
2021/08/26 14:08:50;;;;;;;3.57;1.93;;;;;;;;;;5095371;28;20815;-71
2021/08/26 14:11:22;;;;;;;3.90;2.43;;;;;;;;;;5081370;28;20958;-70
2021/08/26 14:13:56;;;;;;;3.90;1.87;;;;;;;;;;5090446;28;21071;-72
2021/08/26 14:16:39;;;;;;;4.20;2.27;;;;;;;;;;5090844;28;20465;-72
2021/08/26 14:19:09;;;;;;;3.43;1.80;;;;;;;;;;5095349;28;20451;-71
2021/08/26 14:21:37;;;;;;;4.60;2.13;;;;;;;;;;5095298;28;20661;-71
2021/08/26 14:24:05;;;;;;;5.70;3.23;;;;;;;;;;5096297;28;20460;-70
2021/08/26 14:26:34;;;;;;;3.50;1.70;;;;;;;;;;5096764;28;20467;-71
2021/08/26 14:29:09;;;;;;;4.00;2.70;;;;;;;;;;5096888;28;20832;-70
2021/08/26 14:31:37;;;;;;;2.63;1.63;;;;;;;;;;5096716;28;20536;-71
2021/08/26 14:34:15;;;;;;;4.50;2.73;;;;;;;;;;5095938;28;20466;-72
2021/08/26 14:36:45;;;;;;;4.27;2.70;;;;;;;;;;5095434;28;20451;-71
2021/08/26 14:39:13;;;;;;;4.60;2.37;;;;;;;;;;5097037;28;20859;-71
2021/08/26 14:41:44;;;;;;;4.80;3.77;;;;;;;;;;5089123;28;20473;-73
2021/08/26 14:44:37;;;;;;;5.50;2.60;;;;;;;;;;5093212;28;20445;-72
2021/08/26 14:47:33;;;;;;;3.80;2.33;;;;;;;;;;5079257;28;20531;-71
2021/08/26 14:50:18;;;;;;;4.93;2.30;;;;;;;;;;5098992;28;21067;-71
2021/08/26 14:53:11;;;;;;;5.90;3.13;;;;;;;;;;5086557;28;20517;-72
2021/08/26 14:55:45;;;;;;;3.87;2.33;;;;;;;;;;5075486;28;20437;-74
2021/08/26 14:58:15;;;;;;;3.00;1.67;;;;;;;;;;5094612;28;21039;-73
2021/08/26 15:00:44;;;;;;;3.80;2.43;;;;;;;;;;5094394;28;20483;-70
2021/08/26 15:03:12;;;;;;;6.80;4.10;;;;;;;;;;5090916;28;20693;-72
2021/08/26 15:05:43;;;;;;;3.23;1.27;;;;;;;;;;5095874;28;20454;-72
2021/08/26 15:08:23;;;;;;;4.93;2.03;;;;;;;;;;5077063;28;20456;-73
2021/08/26 15:10:51;;;;;;;3.53;2.00;;;;;;;;;;5095722;28;20542;-70
2021/08/26 15:13:55;;;;;;;7.07;3.50;;;;;;;;;;5095032;28;20463;-72
2021/08/26 15:16:24;;;;;;;4.00;2.80;;;;;;;;;;5090081;28;20460;-73
2021/08/26 15:18:52;;;;;;;2.90;1.53;;;;;;;;;;5094575;28;20444;-72
2021/08/26 15:21:23;;;;;;;6.80;2.53;;;;;;;;;;5094949;28;20483;-73
2021/08/26 15:23:59;;;;;;;4.13;1.73;;;;;;;;;;5094364;28;20539;-72
2021/08/26 15:26:29;;;;;;;3.10;2.10;;;;;;;;;;5095339;28;20901;-73
2021/08/26 15:29:02;;;;;;;4.53;1.93;;;;;;;;;;5089420;28;20439;-71